createdAt,value
2022-08-23T00:00:29.629Z,99338.63
2022-08-23T00:02:57.899Z,99340.97
2022-08-23T00:05:25.639Z,99335.84
2022-08-23T00:07:52.916Z,99344.00
2022-08-23T00:10:20.907Z,99340.97
2022-08-23T00:12:48.154Z,99333.62
2022-08-23T00:15:17.035Z,99330.16
2022-08-23T00:17:44.619Z,99321.88
2022-08-23T00:20:13.229Z,99324.72
2022-08-23T00:22:41.642Z,99327.31
2022-08-23T00:25:10.937Z,99328.31
2022-08-23T00:27:39.176Z,99321.63
2022-08-23T00:30:07.678Z,99325.25
2022-08-23T00:32:37.048Z,99331.03
2022-08-23T00:35:05.338Z,99328.78
2022-08-23T00:37:34.448Z,99326.88
2022-08-23T00:40:05.516Z,99331.09
2022-08-23T00:42:58.170Z,99337.37
2022-08-23T00:45:46.937Z,99345.84
2022-08-23T00:48:15.605Z,99339.41
2022-08-23T00:50:51.409Z,99344.22
2022-08-23T00:53:23.365Z,99352.66
2022-08-23T00:55:51.803Z,99356.19
2022-08-23T00:58:19.858Z,99352.69
2022-08-23T01:00:47.949Z,99345.00
2022-08-23T01:03:16.233Z,99348.91
2022-08-23T01:05:58.389Z,99353.28
2022-08-23T01:08:26.448Z,99356.09
2022-08-23T01:10:59.030Z,99352.72
2022-08-23T01:13:33.985Z,99356.69
2022-08-23T01:16:10.830Z,99360.59
2022-08-23T01:18:38.659Z,99369.13
2022-08-23T01:21:24.598Z,99364.03
2022-08-23T01:23:54.262Z,99363.97
2022-08-23T01:26:22.990Z,99369.09
2022-08-23T01:28:51.454Z,99369.69
2022-08-23T01:31:19.901Z,99368.75
2022-08-23T01:33:48.411Z,99371.13
2022-08-23T01:36:16.103Z,99372.97
2022-08-23T01:38:45.167Z,99378.69
2022-08-23T01:41:13.017Z,99380.25
2022-08-23T01:43:40.526Z,99372.22
2022-08-23T01:46:10.128Z,99373.59
2022-08-23T01:48:40.819Z,99378.03
2022-08-23T01:51:09.246Z,99383.94
2022-08-23T01:53:37.373Z,99380.88
2022-08-23T01:56:04.977Z,99385.97
2022-08-23T01:58:33.463Z,99377.88
2022-08-23T02:01:04.562Z,99382.25
2022-08-23T02:03:34.493Z,99382.31
2022-08-23T02:06:01.859Z,99385.19
2022-08-23T02:08:47.925Z,99378.19
2022-08-23T02:11:17.886Z,99388.53
2022-08-23T02:13:48.486Z,99393.13
2022-08-23T02:16:27.179Z,99391.47
2022-08-23T02:18:58.088Z,99384.16
2022-08-23T02:21:26.525Z,99387.78
2022-08-23T02:23:54.491Z,99390.16
2022-08-23T02:26:30.840Z,99390.25
2022-08-23T02:28:59.206Z,99396.50
2022-08-23T02:31:27.189Z,99403.22
2022-08-23T02:33:55.752Z,99407.75
2022-08-23T02:36:24.927Z,99400.22
2022-08-23T02:38:54.009Z,99403.09
2022-08-23T02:41:21.605Z,99400.75
2022-08-23T02:43:54.429Z,99405.59
2022-08-23T02:46:25.312Z,99412.69
2022-08-23T02:48:53.409Z,99413.41
2022-08-23T02:51:22.594Z,99413.94
2022-08-23T02:53:50.590Z,99413.00
2022-08-23T02:56:21.895Z,99416.84
2022-08-23T02:58:54.641Z,99420.03
2022-08-23T03:01:24.662Z,99425.28
2022-08-23T03:03:53.035Z,99428.56
2022-08-23T03:06:24.783Z,99434.72
2022-08-23T03:08:55.123Z,99433.19
2022-08-23T03:11:25.208Z,99436.37
2022-08-23T03:13:53.767Z,99432.06
2022-08-23T03:16:25.510Z,99429.59
2022-08-23T03:18:52.948Z,99427.56
2022-08-23T03:21:21.310Z,99431.63
2022-08-23T03:23:51.401Z,99436.53
2022-08-23T03:26:19.686Z,99436.63
2022-08-23T03:28:48.147Z,99436.09
2022-08-23T03:31:16.406Z,99440.41
2022-08-23T03:33:44.440Z,99445.19
2022-08-23T03:36:12.230Z,99440.91
2022-08-23T03:38:40.607Z,99450.13
2022-08-23T03:41:08.769Z,99454.13
2022-08-23T03:43:36.590Z,99449.38
2022-08-23T03:46:04.963Z,99442.53
2022-08-23T03:48:32.985Z,99445.56
2022-08-23T03:51:00.743Z,99454.69
2022-08-23T03:53:29.250Z,99458.78
2022-08-23T03:55:57.649Z,99453.63
2022-08-23T03:58:27.032Z,99463.09
2022-08-23T04:00:55.319Z,99462.25
2022-08-23T04:03:25.103Z,99464.72
2022-08-23T04:05:53.725Z,99464.72
2022-08-23T04:08:31.854Z,99467.78
2022-08-23T04:11:03.409Z,99468.53
2022-08-23T04:13:31.555Z,99479.47
2022-08-23T04:16:03.000Z,99476.69
2022-08-23T04:18:33.494Z,99474.31
2022-08-23T04:21:07.295Z,99480.56
2022-08-23T04:23:36.968Z,99472.81
2022-08-23T04:26:06.565Z,99468.59
2022-08-23T04:28:38.311Z,99477.47
2022-08-23T04:31:05.848Z,99475.94
2022-08-23T04:33:40.406Z,99475.25
2022-08-23T04:36:10.457Z,99467.91
2022-08-23T04:38:45.710Z,99469.44
2022-08-23T04:41:32.705Z,99464.62
2022-08-23T04:44:00.292Z,99472.88
2022-08-23T04:46:28.763Z,99472.50
2022-08-23T04:48:56.737Z,99481.34
2022-08-23T04:51:24.377Z,99482.87
2022-08-23T04:53:52.036Z,99482.84
2022-08-23T04:56:23.394Z,99488.44
2022-08-23T04:58:51.306Z,99484.34
2022-08-23T05:01:21.432Z,99487.66
2022-08-23T05:03:55.663Z,99494.69
2022-08-23T05:06:25.013Z,99498.66
2022-08-23T05:08:52.554Z,99499.81
2022-08-23T05:11:20.754Z,99498.19
2022-08-23T05:13:50.062Z,99505.09
2022-08-23T05:16:21.351Z,99508.63
2022-08-23T05:18:50.347Z,99503.78
2022-08-23T05:21:19.669Z,99511.03
2022-08-23T05:24:02.122Z,99505.31
2022-08-23T05:26:33.742Z,99512.03
2022-08-23T05:29:08.505Z,99505.81
2022-08-23T05:31:36.738Z,99509.56
2022-08-23T05:34:05.209Z,99510.69
2022-08-23T05:36:32.993Z,99516.28
2022-08-23T05:39:00.896Z,99516.25
2022-08-23T05:41:38.447Z,99515.91
2022-08-23T05:44:07.580Z,99522.22
2022-08-23T05:46:36.878Z,99531.38
2022-08-23T05:49:09.819Z,99528.19
2022-08-23T05:51:40.290Z,99534.44
2022-08-23T05:54:10.433Z,99538.88
2022-08-23T05:56:43.035Z,99539.28
2022-08-23T05:59:15.421Z,99539.28
2022-08-23T06:01:44.535Z,99554.13
2022-08-23T06:04:13.477Z,99549.69
2022-08-23T06:06:42.596Z,99554.69
2022-08-23T06:09:13.470Z,99556.31
2022-08-23T06:11:43.330Z,99560.06
2022-08-23T06:14:12.634Z,99556.91
2022-08-23T06:16:42.683Z,99567.53
2022-08-23T06:19:12.540Z,99566.47
2022-08-23T06:21:45.860Z,99567.09
2022-08-23T06:24:17.363Z,99571.00
2022-08-23T06:26:47.611Z,99569.78
2022-08-23T06:29:39.403Z,99570.97
2022-08-23T06:32:37.507Z,99573.94
2022-08-23T06:35:38.303Z,99581.72
2022-08-23T06:38:03.964Z,99583.69
2022-08-23T06:40:45.506Z,99582.63
2022-08-23T06:43:14.379Z,99583.69
2022-08-23T06:45:53.792Z,99584.53
2022-08-23T06:48:36.349Z,99582.69
2022-08-23T06:51:13.656Z,99590.94
2022-08-23T06:53:46.030Z,99586.62
2022-08-23T06:56:15.510Z,99596.16
2022-08-23T06:58:44.074Z,99588.06
2022-08-23T07:01:45.140Z,99603.16
2022-08-23T07:04:18.715Z,99598.25
2022-08-23T07:06:50.527Z,99602.78
2022-08-23T07:09:19.165Z,99601.59
2022-08-23T07:11:47.047Z,99598.47
2022-08-23T07:14:20.517Z,99604.78
2022-08-23T07:17:01.594Z,99606.47
2022-08-23T07:19:34.849Z,99607.25
2022-08-23T07:22:08.498Z,99607.09
2022-08-23T07:24:39.075Z,99608.97
2022-08-23T07:27:09.969Z,99608.72
2022-08-23T07:29:39.811Z,99604.84
2022-08-23T07:32:18.784Z,99613.88
2022-08-23T07:34:55.611Z,99605.66
2022-08-23T07:37:26.519Z,99605.37
2022-08-23T07:40:01.580Z,99603.97
2022-08-23T07:42:35.337Z,99600.69
2022-08-23T07:45:04.166Z,99610.50
2022-08-23T07:47:33.461Z,99603.50
2022-08-23T07:50:01.415Z,99607.72
2022-08-23T07:52:35.420Z,99618.25
2022-08-23T07:55:05.626Z,99617.63
2022-08-23T07:57:35.463Z,99622.13
2022-08-23T08:00:05.940Z,99625.22
2022-08-23T08:02:40.262Z,99628.37
2022-08-23T08:05:10.433Z,99625.16
2022-08-23T08:07:40.004Z,99610.19
2022-08-23T08:10:09.945Z,99624.91
2022-08-23T08:12:39.492Z,99618.09
2022-08-23T08:15:16.465Z,99626.09
2022-08-23T08:17:52.655Z,99613.31
2022-08-23T08:20:31.437Z,99613.19
2022-08-23T08:23:03.599Z,99613.31
2022-08-23T08:25:34.683Z,99613.00
2022-08-23T08:28:04.422Z,99610.47
2022-08-23T08:30:32.367Z,99614.88
2022-08-23T08:33:08.722Z,99626.59
2022-08-23T08:35:40.995Z,99623.91
2022-08-23T08:38:16.215Z,99635.06
2022-08-23T08:40:46.943Z,99629.97
2022-08-23T08:43:25.084Z,99639.81
2022-08-23T08:45:59.425Z,99630.91
2022-08-23T08:48:32.809Z,99634.75
2022-08-23T08:51:10.526Z,99638.41
2022-08-23T08:53:40.766Z,99643.03
2022-08-23T08:56:25.351Z,99639.97
2022-08-23T08:59:03.890Z,99636.38
2022-08-23T09:01:33.361Z,99637.03
2022-08-23T09:04:01.471Z,99633.94
2022-08-23T09:06:47.955Z,99639.50
2022-08-23T09:09:30.099Z,99636.09
2022-08-23T09:12:22.678Z,99629.41
2022-08-23T09:14:53.641Z,99645.66
2022-08-23T09:17:23.473Z,99642.00
2022-08-23T09:19:52.410Z,99642.50
2022-08-23T09:22:30.953Z,99643.97
2022-08-23T09:24:59.854Z,99642.28
2022-08-23T09:27:36.665Z,99641.94
2022-08-23T09:30:09.540Z,99639.16
2022-08-23T09:35:20.549Z,99644.81
2022-08-23T09:37:54.617Z,99647.84
2022-08-23T09:40:39.000Z,99646.81
2022-08-23T09:43:18.998Z,99645.44
2022-08-23T09:45:51.639Z,99642.63
2022-08-23T09:48:40.819Z,99654.06
2022-08-23T09:51:20.504Z,99647.66
2022-08-23T09:56:54.364Z,99637.81
2022-08-23T09:59:27.608Z,99639.50
2022-08-23T10:01:58.538Z,99640.38
2022-08-23T10:04:32.921Z,99645.09
2022-08-23T10:07:02.766Z,99642.16
2022-08-23T10:09:36.579Z,99635.19
2022-08-23T10:14:55.729Z,99635.53
2022-08-23T10:17:31.155Z,99629.03
2022-08-23T10:20:11.858Z,99641.00
2022-08-23T10:22:48.911Z,99641.22
2022-08-23T10:25:37.165Z,99637.75
2022-08-23T10:28:39.367Z,99640.81
2022-08-23T10:31:21.730Z,99639.12
2022-08-23T10:33:59.734Z,99639.31
2022-08-23T10:36:37.565Z,99636.56
2022-08-23T10:39:12.269Z,99634.19
2022-08-23T10:41:58.982Z,99640.88
2022-08-23T10:44:38.459Z,99640.59
2022-08-23T10:47:06.774Z,99645.44
2022-08-23T10:49:36.337Z,99642.25
2022-08-23T10:52:10.679Z,99647.47
2022-08-23T10:55:02.637Z,99641.66
2022-08-23T10:57:38.507Z,99640.03
2022-08-23T11:00:09.786Z,99644.41
2022-08-23T11:02:48.590Z,99640.72
2022-08-23T11:05:28.937Z,99635.78
2022-08-23T11:07:58.886Z,99640.94
2022-08-23T11:10:39.714Z,99637.09
2022-08-23T11:13:09.612Z,99630.84
2022-08-23T11:15:46.876Z,99627.31
2022-08-23T11:18:33.249Z,99645.66
2022-08-23T11:21:07.987Z,99639.72
2022-08-23T11:23:38.752Z,99641.53
2022-08-23T11:26:08.216Z,99638.28
2022-08-23T11:28:44.509Z,99640.56
2022-08-23T11:31:17.689Z,99636.03
2022-08-23T11:33:51.010Z,99635.31
2022-08-23T11:36:31.614Z,99639.28
2022-08-23T11:39:02.186Z,99638.50
2022-08-23T11:41:37.576Z,99635.66
2022-08-23T11:44:13.465Z,99633.66
2022-08-23T11:46:51.159Z,99638.47
2022-08-23T11:49:29.647Z,99639.47
2022-08-23T11:52:19.007Z,99637.91
2022-08-23T11:55:11.146Z,99640.25
2022-08-23T11:57:59.914Z,99637.00
2022-08-23T12:00:53.559Z,99631.19
2022-08-23T12:03:27.593Z,99640.38
2022-08-23T12:11:52.103Z,99636.47
2022-08-23T12:14:31.534Z,99638.56
2022-08-23T12:17:08.986Z,99641.03
2022-08-23T12:19:46.656Z,99634.25
2022-08-23T12:22:34.464Z,99640.13
2022-08-23T12:25:09.702Z,99639.59
2022-08-23T12:27:44.617Z,99629.56
2022-08-23T12:30:39.786Z,99637.66
2022-08-23T12:33:22.513Z,99637.13
2022-08-23T12:35:57.655Z,99633.66
2022-08-23T12:38:35.908Z,99641.06
2022-08-23T12:41:26.454Z,99638.84
2022-08-23T12:44:01.526Z,99640.13
2022-08-23T12:46:41.592Z,99636.88
2022-08-23T12:49:13.213Z,99633.38
2022-08-23T12:51:49.524Z,99646.41
2022-08-23T12:54:23.544Z,99641.00
2022-08-23T12:56:53.137Z,99652.38
2022-08-23T12:59:25.050Z,99643.31
2022-08-23T13:01:53.853Z,99645.94
2022-08-23T13:04:33.902Z,99650.84
2022-08-23T13:07:10.634Z,99650.22
2022-08-23T13:12:22.857Z,99649.25
2022-08-23T13:14:51.602Z,99655.31
2022-08-23T13:17:21.315Z,99653.09
2022-08-23T13:19:50.330Z,99651.37
2022-08-23T13:22:19.191Z,99653.19
2022-08-23T13:27:56.669Z,99659.06
2022-08-23T13:30:42.714Z,99659.63
2022-08-23T13:33:14.998Z,99648.31
2022-08-23T13:35:50.348Z,99654.06
2022-08-23T13:38:24.817Z,99656.72
2022-08-23T13:40:59.866Z,99650.53
2022-08-23T13:43:34.414Z,99648.50
2022-08-23T13:46:22.613Z,99642.50
2022-08-23T13:49:01.833Z,99637.31
2022-08-23T13:51:39.804Z,99645.94
2022-08-23T13:54:11.679Z,99642.19
2022-08-23T13:56:47.893Z,99644.75
2022-08-23T13:59:21.669Z,99644.28
2022-08-23T14:01:52.599Z,99643.03
2022-08-23T14:04:23.590Z,99644.09
2022-08-23T14:06:59.619Z,99647.00
2022-08-23T14:09:29.741Z,99643.34
2022-08-23T14:12:03.116Z,99647.09
2022-08-23T14:14:43.582Z,99641.28
2022-08-23T14:17:16.966Z,99643.94
2022-08-23T14:20:32.804Z,99640.00
2022-08-23T14:22:40.515Z,99638.78
2022-08-23T14:25:18.869Z,99643.59
2022-08-23T14:27:52.654Z,99641.50
2022-08-23T14:30:29.451Z,99648.94
2022-08-23T14:33:03.735Z,99639.06
2022-08-23T14:35:33.539Z,99648.59
2022-08-23T14:38:05.877Z,99637.34
2022-08-23T14:40:44.561Z,99643.28
2022-08-23T14:43:14.171Z,99643.72
2022-08-23T14:45:49.800Z,99641.66
2022-08-23T14:48:17.968Z,99641.16
2022-08-23T14:50:47.199Z,99638.91
2022-08-23T14:53:16.105Z,99638.84
2022-08-23T14:55:44.224Z,99627.16
2022-08-23T14:58:12.868Z,99638.06
2022-08-23T15:00:42.040Z,99639.47
2022-08-23T15:03:11.275Z,99644.94
2022-08-23T15:05:43.116Z,99638.44
2022-08-23T15:08:17.797Z,99642.63
2022-08-23T15:11:33.179Z,99643.75
2022-08-23T15:13:55.420Z,99642.00
2022-08-23T15:16:30.030Z,99636.63
2022-08-23T15:19:06.571Z,99630.06
2022-08-23T15:21:36.055Z,99632.47
2022-08-23T15:24:09.280Z,99622.59
2022-08-23T15:26:41.835Z,99632.19
2022-08-23T15:29:19.370Z,99627.25
2022-08-23T15:31:56.073Z,99628.19
2022-08-23T15:34:24.996Z,99629.66
2022-08-23T15:36:57.745Z,99633.19
2022-08-23T15:39:30.556Z,99637.31
2022-08-23T15:42:00.780Z,99631.62
2022-08-23T15:44:35.625Z,99645.88
2022-08-23T15:47:07.851Z,99637.13
2022-08-23T15:49:44.813Z,99639.84
2022-08-23T15:52:23.735Z,99632.00
2022-08-23T15:54:51.877Z,99645.28
2022-08-23T15:57:21.947Z,99646.81
2022-08-23T16:00:02.045Z,99640.41
2022-08-23T16:03:06.566Z,99653.56
2022-08-23T16:05:31.393Z,99651.37
2022-08-23T16:07:59.777Z,99655.78
2022-08-23T16:10:35.432Z,99653.44
2022-08-23T16:13:10.777Z,99656.38
2022-08-23T16:15:40.853Z,99649.34
2022-08-23T16:18:15.524Z,99650.03
2022-08-23T16:20:47.570Z,99654.94
2022-08-23T16:26:01.422Z,99657.09
2022-08-23T16:28:34.602Z,99660.47
2022-08-23T16:33:51.638Z,99663.78
2022-08-23T16:36:21.593Z,99656.97
2022-08-23T16:38:51.050Z,99654.28
2022-08-23T16:41:20.763Z,99666.41
2022-08-23T16:43:51.226Z,99654.16
2022-08-23T16:46:29.611Z,99658.34
2022-08-23T16:49:11.572Z,99658.69
2022-08-23T16:51:39.679Z,99658.16
2022-08-23T16:54:10.965Z,99655.66
2022-08-23T16:56:41.956Z,99658.44
2022-08-23T16:59:15.953Z,99663.78
2022-08-23T17:01:50.137Z,99661.75
2022-08-23T17:04:26.654Z,99661.69
2022-08-23T17:07:01.647Z,99664.44
2022-08-23T17:09:36.010Z,99673.41
2022-08-23T17:12:05.613Z,99679.19
2022-08-23T17:14:37.895Z,99676.62
2022-08-23T17:17:09.643Z,99679.69
2022-08-23T17:19:38.315Z,99691.22
2022-08-23T17:22:19.032Z,99688.84
2022-08-23T17:29:54.749Z,99692.72
2022-08-23T17:32:24.583Z,99702.94
2022-08-23T17:34:54.064Z,99716.41
2022-08-23T17:37:23.704Z,99713.97
2022-08-23T17:39:53.336Z,99721.91
2022-08-23T17:42:31.814Z,99722.66
2022-08-23T17:45:09.636Z,99727.72
2022-08-23T17:47:40.025Z,99729.06
2022-08-23T17:50:19.686Z,99733.78
2022-08-23T17:55:49.296Z,99742.37
2022-08-23T17:58:29.642Z,99748.78
2022-08-23T18:01:03.028Z,99744.50
2022-08-23T18:03:42.579Z,99756.59
2022-08-23T18:06:16.510Z,99758.28
2022-08-23T18:08:59.046Z,99761.03
2022-08-23T18:11:28.678Z,99767.94
2022-08-23T18:14:04.572Z,99776.91
2022-08-23T18:19:18.574Z,99785.31
2022-08-23T18:21:47.037Z,99790.19
2022-08-23T18:27:05.627Z,99796.16
2022-08-23T18:29:40.574Z,99803.28
2022-08-23T18:40:28.586Z,99821.88
2022-08-23T18:43:09.183Z,99821.75
2022-08-23T18:45:43.641Z,99821.38
2022-08-23T18:48:29.567Z,99825.69
2022-08-23T18:51:05.679Z,99824.16
2022-08-23T18:53:48.157Z,99817.91
2022-08-23T18:56:32.692Z,99821.59
2022-08-23T18:59:06.523Z,99824.63
2022-08-23T19:01:46.963Z,99817.59
2022-08-23T19:04:25.235Z,99821.00
2022-08-23T19:07:02.150Z,99817.63
2022-08-23T19:09:50.637Z,99815.06
2022-08-23T19:15:09.658Z,99810.75
2022-08-23T19:17:48.740Z,99805.63
2022-08-23T19:20:24.361Z,99810.69
2022-08-23T19:23:00.788Z,99809.13
2022-08-23T19:25:34.624Z,99809.69
2022-08-23T19:28:05.288Z,99806.91
2022-08-23T19:36:35.814Z,99806.38
2022-08-23T19:39:12.580Z,99821.31
2022-08-23T19:41:50.879Z,99824.53
2022-08-23T19:44:21.635Z,99839.03
2022-08-23T19:46:56.860Z,99842.41
2022-08-23T19:49:25.004Z,99844.72
2022-08-23T19:52:00.642Z,99844.12
2022-08-23T19:54:29.585Z,99842.75
2022-08-23T19:57:09.696Z,99838.12
2022-08-23T19:59:50.624Z,99832.09
2022-08-23T20:02:25.598Z,99830.31
2022-08-23T20:04:56.964Z,99834.63
2022-08-23T20:07:31.904Z,99834.16
2022-08-23T20:10:10.016Z,99833.16
2022-08-23T20:15:30.448Z,99830.88
2022-08-23T20:18:04.662Z,99838.53
2022-08-23T20:20:40.673Z,99834.56
2022-08-23T20:23:37.161Z,99834.56
2022-08-23T20:28:59.312Z,99837.59
2022-08-23T20:34:12.561Z,99835.63
2022-08-23T20:36:41.653Z,99838.53
2022-08-23T20:39:12.692Z,99838.81
2022-08-23T20:41:44.655Z,99842.75
2022-08-23T20:49:22.839Z,99836.94
2022-08-23T20:51:53.045Z,99829.53
2022-08-23T20:54:20.901Z,99821.16
2022-08-23T20:56:51.736Z,99818.44
2022-08-23T20:59:20.051Z,99825.56
2022-08-23T21:01:47.720Z,99826.31
2022-08-23T21:04:15.432Z,99826.41
2022-08-23T21:09:28.928Z,99839.91
2022-08-23T21:11:57.621Z,99838.88
2022-08-23T21:14:25.834Z,99832.00
2022-08-23T21:16:53.951Z,99823.19
2022-08-23T21:19:21.813Z,99834.69
2022-08-23T21:21:49.720Z,99825.13
2022-08-23T21:24:18.628Z,99826.91
2022-08-23T21:26:47.137Z,99826.47
2022-08-23T21:29:14.797Z,99833.00
2022-08-23T21:31:42.520Z,99823.63
2022-08-23T21:34:14.410Z,99817.41
2022-08-23T21:36:51.643Z,99816.31
2022-08-23T21:39:19.627Z,99821.44
2022-08-23T21:41:48.416Z,99817.34
2022-08-23T21:44:18.941Z,99819.31
2022-08-23T21:46:47.801Z,99819.75
2022-08-23T21:49:19.727Z,99826.28
2022-08-23T21:51:53.217Z,99821.53
2022-08-23T21:54:20.900Z,99829.94
2022-08-23T21:56:49.360Z,99831.00
2022-08-23T21:59:17.876Z,99834.69
2022-08-23T22:01:47.911Z,99838.81
2022-08-23T22:04:19.654Z,99830.03
2022-08-23T22:06:49.596Z,99829.91
2022-08-23T22:09:24.853Z,99825.59
2022-08-23T22:11:55.998Z,99822.91
2022-08-23T22:14:25.225Z,99816.47
2022-08-23T22:16:59.087Z,99807.19
2022-08-23T22:19:27.079Z,99808.19
2022-08-23T22:21:55.597Z,99817.13
2022-08-23T22:24:26.300Z,99815.84
2022-08-23T22:26:54.803Z,99808.34
2022-08-23T22:29:23.709Z,99808.53
2022-08-23T22:31:51.408Z,99806.12
2022-08-23T22:34:19.419Z,99804.13
2022-08-23T22:36:51.925Z,99799.91
2022-08-23T22:39:23.263Z,99791.81
2022-08-23T22:41:51.866Z,99786.44
2022-08-23T22:44:19.762Z,99790.41
2022-08-23T22:46:47.718Z,99781.16
2022-08-23T22:49:15.507Z,99775.25
2022-08-23T22:51:43.667Z,99765.22
2022-08-23T22:54:12.660Z,99765.59
2022-08-23T22:56:44.822Z,99763.97
2022-08-23T22:59:14.086Z,99760.00
2022-08-23T23:01:45.203Z,99749.66
2022-08-23T23:04:16.688Z,99747.69
2022-08-23T23:06:45.070Z,99754.75
2022-08-23T23:09:13.140Z,99752.62
2022-08-23T23:11:42.256Z,99749.50
2022-08-23T23:14:11.309Z,99753.72
2022-08-23T23:16:38.806Z,99752.00
2022-08-23T23:19:25.450Z,99757.16
2022-08-23T23:21:54.701Z,99751.78
2022-08-23T23:24:27.021Z,99752.62
2022-08-23T23:26:55.252Z,99758.28
2022-08-23T23:29:23.377Z,99759.28
2022-08-23T23:31:50.848Z,99754.19
2022-08-23T23:34:20.353Z,99757.16
2022-08-23T23:36:48.384Z,99761.69
2022-08-23T23:39:15.999Z,99762.78
2022-08-23T23:41:44.568Z,99763.66
2022-08-23T23:44:12.284Z,99768.19
2022-08-23T23:46:43.401Z,99767.34
2022-08-23T23:49:14.694Z,99769.34
2022-08-23T23:51:42.571Z,99760.84
2022-08-23T23:54:10.005Z,99761.09
2022-08-23T23:56:42.908Z,99772.72
2022-08-23T23:59:10.731Z,99767.63
